»·PEaware :: AAL614 KMBS-KMSY

AAL614 :: KMBS-KMSY

FLIGHT INFORMATION

Flight Status: Arrived
Operator:
American Airlines
More flights by this operator :: More flights under this callsign
Pilot: John H. (7647)
Aircraft: BOEING 737-800
(B738)
More flights by this aircraft type
Origin: KMBS Mbs Intl
United States
Destination: KMSY Armstrong New Orleans Intl
United States
More flights between these airports :: More routes between these airports
Route: FNT IIU J39 BNA MEI RYTHM4
File this flight plan on PilotEdge
Remarks:
Altitude:
(Current/Filed)
34,000ft
Speed:
(Current/Filed)
462kts
Departed: 16-Sep-18 06:20 AM
Arrived: 16-Sep-18 08:35 AM
Distance/Time
Traveled:
865nm/2:15
Distance/Time
To Go:
Arrived

Flight Plot

Page will automatically refresh every two minutes.

Flight plan parsing failed; only flown route is shown


Map Options




Map Legend


Flown Route
Filed Route
Departure Airport
Arrival Airport
Navaid (VOR, NDB)
Fix

Horizontal Profiles

Position Reports

Time Latitude Longitude Heading Altitude Ground
Speed
16-Sep-18 06:10 43.537589 -84.082740 89 664ft 0kts
16-Sep-18 06:11 43.537589 -84.082740 89 664ft 0kts
16-Sep-18 06:12 43.537589 -84.082740 89 664ft 0kts
16-Sep-18 06:13 43.537589 -84.082740 89 664ft 0kts
16-Sep-18 06:14 43.537587 -84.083087 90 665ft 0kts
16-Sep-18 06:15 43.537850 -84.083546 187 665ft 1kts
16-Sep-18 06:16 43.537892 -84.083542 180 665ft 0kts
16-Sep-18 06:17 43.537862 -84.083542 180 665ft 0kts
16-Sep-18 06:18 43.536811 -84.083183 106 666ft 8kts
16-Sep-18 06:19 43.535258 -84.080055 225 664ft 20kts
16-Sep-18 06:20 43.530520 -84.086865 224 667ft 29kts
16-Sep-18 06:21 43.527434 -84.088365 47 669ft 23kts
16-Sep-18 06:22 43.549365 -84.057972 45 1496ft 146kts
16-Sep-18 06:23 43.588469 -84.004993 46 3027ft 196kts
16-Sep-18 06:24 43.622178 -83.957097 45 4860ft 171kts
16-Sep-18 06:25 43.659523 -83.895143 77 5677ft 258kts
16-Sep-18 06:26 43.614408 -83.828352 172 8063ft 285kts
16-Sep-18 06:27 43.534678 -83.821861 176 10467ft 302kts
16-Sep-18 06:28 43.444651 -83.816451 175 12164ft 338kts
16-Sep-18 06:29 43.351802 -83.809610 173 14905ft 333kts
16-Sep-18 06:30 43.261197 -83.797155 174 17026ft 341kts
16-Sep-18 06:31 43.164004 -83.777710 173 18327ft 371kts
16-Sep-18 06:32 43.061800 -83.784573 193 20186ft 376kts
16-Sep-18 06:33 42.960608 -83.760753 177 21813ft 387kts
16-Sep-18 06:34 42.856810 -83.790012 198 23384ft 390kts
16-Sep-18 06:35 42.752023 -83.832699 198 24779ft 400kts
16-Sep-18 06:36 42.644377 -83.876148 198 26051ft 410kts
16-Sep-18 06:37 42.534979 -83.920089 198 27579ft 409kts
16-Sep-18 06:38 42.427685 -83.963096 195 29093ft 406kts
16-Sep-18 06:39 42.318488 -84.006559 194 29477ft 430kts
16-Sep-18 06:40 42.204863 -84.051445 196 30382ft 438kts
16-Sep-18 06:41 42.091836 -84.096021 196 31617ft 435kts
16-Sep-18 06:42 41.977602 -84.140899 196 32768ft 432kts
16-Sep-18 06:43 41.867701 -84.183915 196 33766ft 429kts
16-Sep-18 06:44 41.757719 -84.226865 196 34243ft 439kts
16-Sep-18 06:45 41.639369 -84.272911 196 34244ft 463kts
16-Sep-18 06:46 41.515334 -84.320979 196 34210ft 468kts
16-Sep-18 06:47 41.391769 -84.368697 196 34211ft 469kts
16-Sep-18 06:48 41.271841 -84.414853 196 34211ft 469kts
16-Sep-18 06:49 41.147345 -84.462603 196 34211ft 469kts
16-Sep-18 06:50 41.023406 -84.509962 196 34213ft 469kts
16-Sep-18 06:51 40.900028 -84.556941 196 34213ft 469kts
16-Sep-18 06:52 40.779806 -84.602550 196 34197ft 470kts
16-Sep-18 06:53 40.654914 -84.649763 196 34183ft 470kts
16-Sep-18 06:54 40.531350 -84.696360 195 34183ft 470kts
16-Sep-18 06:55 40.406529 -84.743257 195 34184ft 470kts
16-Sep-18 06:56 40.281748 -84.789960 195 34183ft 470kts
16-Sep-18 06:57 40.155959 -84.836861 195 34184ft 470kts
16-Sep-18 06:58 40.051640 -84.875638 195 34182ft 470kts
16-Sep-18 06:59 39.904997 -84.929982 192 34195ft 474kts
16-Sep-18 07:00 39.811399 -84.964635 192 34182ft 434kts
16-Sep-18 07:01 39.697091 -85.006589 192 34185ft 433kts
16-Sep-18 07:02 39.562399 -85.055901 192 34184ft 433kts
16-Sep-18 07:03 39.465719 -85.091172 192 34158ft 432kts
16-Sep-18 07:04 39.330768 -85.140220 192 34156ft 434kts
16-Sep-18 07:05 39.234010 -85.175285 192 34153ft 434kts
16-Sep-18 07:06 39.117696 -85.217276 192 34159ft 435kts
16-Sep-18 07:07 39.001583 -85.259041 192 34154ft 436kts
16-Sep-18 07:08 38.886546 -85.300314 192 34158ft 436kts
16-Sep-18 07:09 38.769835 -85.342037 192 34157ft 437kts
16-Sep-18 07:10 38.653303 -85.383569 192 34154ft 438kts
16-Sep-18 07:11 38.536404 -85.425052 192 34160ft 438kts
16-Sep-18 07:12 38.419173 -85.466504 192 34160ft 439kts
16-Sep-18 07:13 38.301802 -85.507848 192 34101ft 440kts
16-Sep-18 07:14 38.183774 -85.549276 192 34102ft 441kts
16-Sep-18 07:15 38.067130 -85.596699 201 34111ft 446kts
16-Sep-18 07:16 37.956794 -85.661028 200 34098ft 446kts
16-Sep-18 07:17 37.845433 -85.725474 200 34103ft 447kts
16-Sep-18 07:18 37.732497 -85.790462 200 34109ft 450kts
16-Sep-18 07:19 37.619705 -85.855107 200 34103ft 448kts
16-Sep-18 07:20 37.506444 -85.919768 200 34102ft 448kts
16-Sep-18 07:21 37.393461 -85.984037 200 34101ft 449kts
16-Sep-18 07:22 37.279589 -86.048621 200 34075ft 451kts
16-Sep-18 07:23 37.165662 -86.113017 200 34077ft 451kts
16-Sep-18 07:24 37.051105 -86.177525 200 34075ft 452kts
16-Sep-18 07:25 36.937223 -86.241445 200 34075ft 452kts
16-Sep-18 07:26 36.824307 -86.304585 200 34079ft 449kts
16-Sep-18 07:27 36.710081 -86.368262 200 34078ft 452kts
16-Sep-18 07:28 36.595661 -86.431846 200 34074ft 452kts
16-Sep-18 07:29 36.481164 -86.495273 200 34078ft 452kts
16-Sep-18 07:30 36.366758 -86.558435 200 34079ft 451kts
16-Sep-18 07:31 36.252009 -86.621585 200 34077ft 451kts
16-Sep-18 07:32 36.139391 -86.683352 199 34047ft 451kts
16-Sep-18 07:33 36.026099 -86.749645 201 34045ft 453kts
16-Sep-18 07:34 35.913213 -86.816356 201 34044ft 452kts
16-Sep-18 07:35 35.802406 -86.881583 201 34048ft 451kts
16-Sep-18 07:36 35.689752 -86.947690 201 34047ft 451kts
16-Sep-18 07:37 35.577080 -87.013549 201 34029ft 451kts
16-Sep-18 07:38 35.464098 -87.079360 201 34022ft 450kts
16-Sep-18 07:39 35.351126 -87.144936 201 34022ft 450kts
16-Sep-18 07:40 35.238659 -87.210014 201 34022ft 449kts
16-Sep-18 07:41 35.126172 -87.274881 201 34026ft 449kts
16-Sep-18 07:42 35.013868 -87.339516 201 34021ft 447kts
16-Sep-18 07:43 34.901836 -87.403789 201 34021ft 447kts
16-Sep-18 07:44 34.791339 -87.467032 201 34028ft 445kts
16-Sep-18 07:45 34.679701 -87.530732 201 34024ft 444kts
16-Sep-18 07:46 34.568136 -87.594202 201 34025ft 443kts
16-Sep-18 07:47 34.458239 -87.656553 200 34022ft 442kts
16-Sep-18 07:48 34.347401 -87.719233 200 34019ft 441kts
16-Sep-18 07:49 34.236462 -87.781798 200 34018ft 440kts
16-Sep-18 07:50 34.125886 -87.844000 200 34018ft 439kts
16-Sep-18 07:51 34.015622 -87.905856 200 34018ft 438kts
16-Sep-18 07:52 33.905243 -87.967634 200 34017ft 437kts
16-Sep-18 07:53 33.796806 -88.028121 200 34026ft 436kts
16-Sep-18 07:54 33.687257 -88.089078 200 33995ft 435kts
16-Sep-18 07:55 33.581363 -88.147833 200 33995ft 435kts
16-Sep-18 07:56 33.472394 -88.208145 200 33995ft 434kts
16-Sep-18 07:57 33.363525 -88.268233 200 33995ft 433kts
16-Sep-18 07:58 33.255201 -88.327855 200 33993ft 431kts
16-Sep-18 07:59 33.146615 -88.387426 200 33991ft 443kts
16-Sep-18 08:00 33.031372 -88.450257 203 34005ft 469kts
16-Sep-18 08:01 32.910448 -88.516153 203 33998ft 485kts
16-Sep-18 08:02 32.789973 -88.581640 203 33994ft 484kts
16-Sep-18 08:03 32.667802 -88.647861 204 33995ft 485kts
16-Sep-18 08:04 32.562053 -88.705036 204 33989ft 487kts
16-Sep-18 08:05 32.439654 -88.771079 203 33994ft 485kts
16-Sep-18 08:06 32.325505 -88.853156 220 33969ft 486kts
16-Sep-18 08:07 32.222125 -88.955008 220 33967ft 486kts
16-Sep-18 08:08 32.118074 -89.056335 219 33967ft 485kts
16-Sep-18 08:09 32.014138 -89.156976 219 33968ft 486kts
16-Sep-18 08:10 31.910227 -89.257224 219 33998ft 486kts
16-Sep-18 08:11 31.807652 -89.355666 223 33996ft 484kts
16-Sep-18 08:12 31.709591 -89.449485 225 33994ft 450kts
16-Sep-18 08:13 31.613206 -89.541737 225 33989ft 446kts
16-Sep-18 08:14 31.517256 -89.633271 225 33991ft 446kts
16-Sep-18 08:15 31.422435 -89.723452 224 31589ft 446kts
16-Sep-18 08:16 31.327737 -89.813247 223 28765ft 449kts
16-Sep-18 08:17 31.229822 -89.905869 222 25760ft 458kts
16-Sep-18 08:18 31.136138 -89.993877 222 24213ft 442kts
16-Sep-18 08:19 31.043903 -90.080584 221 21901ft 419kts
16-Sep-18 08:20 30.953799 -90.165116 221 19797ft 413kts
16-Sep-18 08:21 30.861100 -90.221712 191 17766ft 411kts
16-Sep-18 08:22 30.750379 -90.218427 178 15826ft 397kts
16-Sep-18 08:23 30.643204 -90.210314 178 13963ft 383kts
16-Sep-18 08:24 30.544889 -90.202950 177 12282ft 332kts
16-Sep-18 08:25 30.457954 -90.196489 177 10674ft 302kts
16-Sep-18 08:26 30.378946 -90.190665 176 9359ft 270kts
16-Sep-18 08:27 30.310301 -90.185671 175 8324ft 247kts
16-Sep-18 08:28 30.244521 -90.180892 175 7378ft 230kts
16-Sep-18 08:29 30.184513 -90.165793 156 6543ft 224kts
16-Sep-18 08:30 30.128774 -90.138458 157 5703ft 218kts
16-Sep-18 08:31 30.074116 -90.111935 158 4921ft 216kts
16-Sep-18 08:32 30.020332 -90.085935 158 4147ft 213kts
16-Sep-18 08:33 29.968859 -90.085791 246 2932ft 208kts
16-Sep-18 08:34 29.964813 -90.146778 280 1828ft 184kts
16-Sep-18 08:35 29.976749 -90.199568 286 934ft 164kts
16-Sep-18 08:36 29.989122 -90.250578 287 22ft 167kts
16-Sep-18 08:37 29.996392 -90.281947 197 10ft 0kts
16-Sep-18 08:38 29.996341 -90.281967 198 10ft 0kts
16-Sep-18 08:39 29.996342 -90.281967 198 10ft 0kts
16-Sep-18 08:40 29.996342 -90.281967 198 10ft 0kts

Navigation Log

Ident Type
Flight plan parsing failed, navigation log unavailable